This is the latest recevied weather packets stored in our database for station/object KM8V-8. If no packets are shown the sender has not sent any weather packets the latest 10 day(s).
| Time | Temp. | Humidity | Pressure | Rain* | Wind** | Luminosity | Snow |
|---|---|---|---|---|---|---|---|
| 1777937119 | 23.33° C | 51% | 1001.4 hPa | 0 mm | - | 107 W/m² | - |
| 1777929018 | 22.78° C | 51% | 1002.4 hPa | 0 mm | - | 497 W/m² | - |
| 1777926918 | 23.33° C | 50% | 1002.6 hPa | 0 mm | - | 715 W/m² | - |
| 1777925418 | 22.78° C | 48% | 1003 hPa | 0 mm | - | 708 W/m² | - |
| 1777924516 | 22.78° C | 48% | 1003.1 hPa | 0 mm | - | 756 W/m² | - |
| 1777922721 | 22.78° C | 50% | 1003.5 hPa | 0 mm | - | 830 W/m² | - |
| 1777922122 | 22.78° C | 49% | 1003.7 hPa | 0 mm | - | 850 W/m² | - |
| 1777921819 | 22.78° C | 49% | 1003.7 hPa | 0 mm | - | 857 W/m² | - |
| 1777920922 | 22.22° C | 48% | 1003.9 hPa | 0 mm | - | 894 W/m² | - |
| 1777920616 | 22.22° C | 47% | 1004.1 hPa | 0 mm | - | 908 W/m² | - |
| 1777918520 | 22.22° C | 46% | 1004.2 hPa | 0 mm | - | 941 W/m² | - |
| 1777917317 | 21.67° C | 51% | 1004.4 hPa | 0 mm | - | 956 W/m² | - |
| 1777916717 | 21.67° C | 51% | 1004.5 hPa | 0 mm | - | 962 W/m² | - |
| 1777916417 | 21.67° C | 50% | 1004.6 hPa | 0 mm | - | 964 W/m² | - |
| 1777916117 | 21.67° C | 51% | 1004.7 hPa | 0 mm | - | 966 W/m² | - |
| 1777915220 | 21.67° C | 50% | 1004.8 hPa | 0 mm | - | 966 W/m² | - |
| 1777911918 | 20.56° C | 52% | 1005.2 hPa | 0 mm | - | 926 W/m² | - |
| 1777908619 | 18.33° C | 56% | 1006 hPa | 0 mm | - | 815 W/m² | - |
| 1777908319 | 18.33° C | 56% | 1006 hPa | 0 mm | - | 805 W/m² | - |
| 1777908019 | 18.33° C | 57% | 1006.1 hPa | 0 mm | - | 793 W/m² | - |
| 1777906520 | 17.78° C | 57% | 1006.1 hPa | 0 mm | - | 726 W/m² | - |
| 1777902020 | 14.44° C | 60% | 1006.9 hPa | 0 mm | - | 497 W/m² | - |
| 1777901421 | 14.44° C | 61% | 1007 hPa | 0.76 mm | - | 463 W/m² | - |
| 1777901121 | 14.44° C | 61% | 1007.1 hPa | 0.76 mm | - | 445 W/m² | - |
| 1777900821 | 13.89° C | 61% | 1007.1 hPa | 0.76 mm | - | 429 W/m² | - |
* Rain latest hour (hover to see other rain measurements)
** Current wind speed in m/s (hover to see current wind gust speed)